sensor_id;sensor_type;location;lat;lon;timestamp;P1;durP1;ratioP1;P2;durP2;ratioP2
15331;SDS011;7766;51.534;6.722;2023-08-08T00:00:45;3.33;;;2.00;;
15331;SDS011;7766;51.534;6.722;2023-08-08T00:01:46;3.17;;;2.30;;
15331;SDS011;7766;51.534;6.722;2023-08-08T00:02:47;3.63;;;2.30;;
15331;SDS011;7766;51.534;6.722;2023-08-08T00:03:48;3.13;;;1.80;;
15331;SDS011;7766;51.534;6.722;2023-08-08T00:04:49;4.00;;;1.90;;
15331;SDS011;7766;51.534;6.722;2023-08-08T00:05:50;2.70;;;1.97;;
15331;SDS011;7766;51.534;6.722;2023-08-08T00:06:51;2.83;;;2.20;;
15331;SDS011;7766;51.534;6.722;2023-08-08T00:07:52;5.37;;;2.10;;
15331;SDS011;7766;51.534;6.722;2023-08-08T00:08:53;4.10;;;1.90;;
15331;SDS011;7766;51.534;6.722;2023-08-08T00:09:54;2.57;;;1.90;;
15331;SDS011;7766;51.534;6.722;2023-08-08T00:10:55;4.33;;;1.83;;
15331;SDS011;7766;51.534;6.722;2023-08-08T00:11:56;13.67;;;8.80;;
15331;SDS011;7766;51.534;6.722;2023-08-08T00:12:58;8.07;;;3.40;;
15331;SDS011;7766;51.534;6.722;2023-08-08T00:13:59;9.37;;;5.30;;
15331;SDS011;7766;51.534;6.722;2023-08-08T00:15:00;8.60;;;6.57;;
15331;SDS011;7766;51.534;6.722;2023-08-08T00:16:01;4.37;;;2.70;;
15331;SDS011;7766;51.534;6.722;2023-08-08T00:17:02;5.30;;;2.70;;
15331;SDS011;7766;51.534;6.722;2023-08-08T00:18:03;5.57;;;2.13;;
15331;SDS011;7766;51.534;6.722;2023-08-08T00:19:04;4.73;;;2.13;;
15331;SDS011;7766;51.534;6.722;2023-08-08T00:20:06;3.60;;;1.90;;
15331;SDS011;7766;51.534;6.722;2023-08-08T00:21:07;3.53;;;2.33;;
15331;SDS011;7766;51.534;6.722;2023-08-08T00:22:08;4.10;;;2.00;;
15331;SDS011;7766;51.534;6.722;2023-08-08T00:23:09;3.23;;;1.90;;
15331;SDS011;7766;51.534;6.722;2023-08-08T00:24:10;3.17;;;2.13;;
15331;SDS011;7766;51.534;6.722;2023-08-08T00:25:11;4.50;;;2.17;;
15331;SDS011;7766;51.534;6.722;2023-08-08T00:26:12;2.73;;;2.00;;
15331;SDS011;7766;51.534;6.722;2023-08-08T00:27:13;4.03;;;2.20;;
15331;SDS011;7766;51.534;6.722;2023-08-08T00:28:14;3.00;;;1.77;;
15331;SDS011;7766;51.534;6.722;2023-08-08T00:29:15;3.40;;;2.10;;
15331;SDS011;7766;51.534;6.722;2023-08-08T00:30:16;2.47;;;2.00;;
15331;SDS011;7766;51.534;6.722;2023-08-08T00:31:18;3.93;;;2.30;;
15331;SDS011;7766;51.534;6.722;2023-08-08T00:32:19;5.00;;;2.30;;
15331;SDS011;7766;51.534;6.722;2023-08-08T00:33:20;4.90;;;1.97;;
15331;SDS011;7766;51.534;6.722;2023-08-08T00:34:21;5.17;;;2.30;;
15331;SDS011;7766;51.534;6.722;2023-08-08T00:35:22;5.53;;;2.43;;
15331;SDS011;7766;51.534;6.722;2023-08-08T00:36:24;3.97;;;2.30;;
15331;SDS011;7766;51.534;6.722;2023-08-08T00:37:25;2.13;;;1.93;;
15331;SDS011;7766;51.534;6.722;2023-08-08T00:38:26;4.60;;;2.20;;
15331;SDS011;7766;51.534;6.722;2023-08-08T00:39:27;3.43;;;2.13;;
15331;SDS011;7766;51.534;6.722;2023-08-08T00:40:28;3.10;;;2.10;;
15331;SDS011;7766;51.534;6.722;2023-08-08T00:41:29;3.33;;;2.40;;
15331;SDS011;7766;51.534;6.722;2023-08-08T00:42:30;2.10;;;1.70;;
15331;SDS011;7766;51.534;6.722;2023-08-08T00:43:31;3.20;;;2.10;;
15331;SDS011;7766;51.534;6.722;2023-08-08T00:44:32;2.47;;;2.27;;
15331;SDS011;7766;51.534;6.722;2023-08-08T00:45:33;3.80;;;2.20;;
15331;SDS011;7766;51.534;6.722;2023-08-08T00:46:35;3.00;;;2.20;;
15331;SDS011;7766;51.534;6.722;2023-08-08T00:47:36;3.20;;;2.07;;
15331;SDS011;7766;51.534;6.722;2023-08-08T00:48:37;2.30;;;2.10;;
15331;SDS011;7766;51.534;6.722;2023-08-08T00:49:38;3.23;;;1.90;;
15331;SDS011;7766;51.534;6.722;2023-08-08T00:50:41;5.07;;;2.60;;
15331;SDS011;7766;51.534;6.722;2023-08-08T00:51:44;3.23;;;2.10;;
15331;SDS011;7766;51.534;6.722;2023-08-08T00:52:47;4.60;;;2.10;;
15331;SDS011;7766;51.534;6.722;2023-08-08T00:53:49;5.70;;;2.43;;
15331;SDS011;7766;51.534;6.722;2023-08-08T00:54:50;4.33;;;2.30;;
15331;SDS011;7766;51.534;6.722;2023-08-08T00:55:53;4.30;;;2.20;;
15331;SDS011;7766;51.534;6.722;2023-08-08T00:56:54;3.10;;;2.40;;
15331;SDS011;7766;51.534;6.722;2023-08-08T00:57:55;4.03;;;2.03;;
15331;SDS011;7766;51.534;6.722;2023-08-08T00:58:56;2.93;;;2.20;;
15331;SDS011;7766;51.534;6.722;2023-08-08T00:59:57;4.10;;;2.10;;
15331;SDS011;7766;51.534;6.722;2023-08-08T01:00:59;3.17;;;2.10;;
15331;SDS011;7766;51.534;6.722;2023-08-08T01:02:00;3.00;;;2.10;;
15331;SDS011;7766;51.534;6.722;2023-08-08T01:03:01;2.60;;;1.87;;
15331;SDS011;7766;51.534;6.722;2023-08-08T01:04:02;3.40;;;2.00;;
15331;SDS011;7766;51.534;6.722;2023-08-08T01:05:06;2.97;;;2.20;;
15331;SDS011;7766;51.534;6.722;2023-08-08T01:06:31;3.43;;;2.00;;
15331;SDS011;7766;51.534;6.722;2023-08-08T01:08:46;4.30;;;2.10;;
15331;SDS011;7766;51.534;6.722;2023-08-08T01:11:36;7.47;;;2.37;;
15331;SDS011;7766;51.534;6.722;2023-08-08T01:12:40;3.50;;;2.10;;
15331;SDS011;7766;51.534;6.722;2023-08-08T01:13:50;6.53;;;2.10;;
15331;SDS011;7766;51.534;6.722;2023-08-08T01:14:53;3.30;;;2.20;;
15331;SDS011;7766;51.534;6.722;2023-08-08T01:15:55;3.97;;;2.10;;
15331;SDS011;7766;51.534;6.722;2023-08-08T01:16:59;3.90;;;2.30;;
15331;SDS011;7766;51.534;6.722;2023-08-08T01:18:05;2.17;;;1.87;;
15331;SDS011;7766;51.534;6.722;2023-08-08T01:19:09;2.80;;;2.20;;
15331;SDS011;7766;51.534;6.722;2023-08-08T01:20:17;6.57;;;2.10;;
15331;SDS011;7766;51.534;6.722;2023-08-08T01:21:19;5.70;;;2.10;;
15331;SDS011;7766;51.534;6.722;2023-08-08T01:22:24;4.13;;;2.10;;
15331;SDS011;7766;51.534;6.722;2023-08-08T01:23:30;3.93;;;2.10;;
15331;SDS011;7766;51.534;6.722;2023-08-08T01:24:40;3.07;;;1.60;;
15331;SDS011;7766;51.534;6.722;2023-08-08T01:25:41;3.10;;;1.93;;
15331;SDS011;7766;51.534;6.722;2023-08-08T01:26:43;4.50;;;2.20;;
15331;SDS011;7766;51.534;6.722;2023-08-08T01:27:45;6.20;;;2.20;;
15331;SDS011;7766;51.534;6.722;2023-08-08T01:28:46;4.63;;;2.10;;
15331;SDS011;7766;51.534;6.722;2023-08-08T01:29:47;5.23;;;1.90;;
15331;SDS011;7766;51.534;6.722;2023-08-08T01:30:48;5.93;;;2.00;;
15331;SDS011;7766;51.534;6.722;2023-08-08T01:31:50;2.87;;;2.00;;
15331;SDS011;7766;51.534;6.722;2023-08-08T01:32:51;5.20;;;2.30;;
15331;SDS011;7766;51.534;6.722;2023-08-08T01:33:52;4.70;;;2.20;;
15331;SDS011;7766;51.534;6.722;2023-08-08T01:34:53;5.10;;;2.27;;
15331;SDS011;7766;51.534;6.722;2023-08-08T01:35:56;3.07;;;2.13;;
15331;SDS011;7766;51.534;6.722;2023-08-08T01:37:04;5.03;;;2.20;;
15331;SDS011;7766;51.534;6.722;2023-08-08T01:38:17;3.37;;;1.80;;
15331;SDS011;7766;51.534;6.722;2023-08-08T01:39:25;5.87;;;2.03;;
15331;SDS011;7766;51.534;6.722;2023-08-08T01:40:27;3.53;;;1.97;;
15331;SDS011;7766;51.534;6.722;2023-08-08T01:41:31;4.53;;;2.40;;
15331;SDS011;7766;51.534;6.722;2023-08-08T01:42:33;3.70;;;2.10;;
15331;SDS011;7766;51.534;6.722;2023-08-08T01:43:36;4.13;;;2.20;;
15331;SDS011;7766;51.534;6.722;2023-08-08T01:44:40;4.10;;;2.10;;
15331;SDS011;7766;51.534;6.722;2023-08-08T01:45:42;4.43;;;2.20;;
15331;SDS011;7766;51.534;6.722;2023-08-08T01:46:44;3.57;;;2.13;;
15331;SDS011;7766;51.534;6.722;2023-08-08T01:47:50;8.47;;;2.40;;
15331;SDS011;7766;51.534;6.722;2023-08-08T01:48:51;4.47;;;2.00;;
15331;SDS011;7766;51.534;6.722;2023-08-08T01:49:52;5.87;;;1.97;;
15331;SDS011;7766;51.534;6.722;2023-08-08T01:50:53;3.90;;;2.23;;
15331;SDS011;7766;51.534;6.722;2023-08-08T01:51:54;2.93;;;2.20;;
15331;SDS011;7766;51.534;6.722;2023-08-08T01:52:55;3.23;;;2.20;;
15331;SDS011;7766;51.534;6.722;2023-08-08T01:53:56;3.87;;;2.20;;
15331;SDS011;7766;51.534;6.722;2023-08-08T01:54:57;2.93;;;2.03;;
15331;SDS011;7766;51.534;6.722;2023-08-08T01:55:58;4.73;;;1.93;;
15331;SDS011;7766;51.534;6.722;2023-08-08T01:56:59;4.43;;;2.23;;
15331;SDS011;7766;51.534;6.722;2023-08-08T01:58:00;3.97;;;2.13;;
15331;SDS011;7766;51.534;6.722;2023-08-08T01:59:01;7.60;;;2.43;;
15331;SDS011;7766;51.534;6.722;2023-08-08T02:00:03;2.63;;;1.90;;
15331;SDS011;7766;51.534;6.722;2023-08-08T02:01:05;5.77;;;2.37;;
15331;SDS011;7766;51.534;6.722;2023-08-08T02:02:06;4.63;;;2.30;;
15331;SDS011;7766;51.534;6.722;2023-08-08T02:03:07;4.60;;;2.57;;
15331;SDS011;7766;51.534;6.722;2023-08-08T02:04:08;4.37;;;2.17;;
15331;SDS011;7766;51.534;6.722;2023-08-08T02:05:09;3.90;;;2.30;;
15331;SDS011;7766;51.534;6.722;2023-08-08T02:06:10;6.30;;;2.30;;
15331;SDS011;7766;51.534;6.722;2023-08-08T02:07:11;4.03;;;2.17;;
15331;SDS011;7766;51.534;6.722;2023-08-08T02:08:12;5.10;;;2.30;;
15331;SDS011;7766;51.534;6.722;2023-08-08T02:09:13;3.30;;;2.07;;
15331;SDS011;7766;51.534;6.722;2023-08-08T02:10:15;5.43;;;2.63;;
15331;SDS011;7766;51.534;6.722;2023-08-08T02:11:16;5.13;;;2.60;;
15331;SDS011;7766;51.534;6.722;2023-08-08T02:12:17;5.80;;;2.37;;
15331;SDS011;7766;51.534;6.722;2023-08-08T02:13:18;3.13;;;2.43;;
15331;SDS011;7766;51.534;6.722;2023-08-08T02:14:19;6.50;;;2.37;;
15331;SDS011;7766;51.534;6.722;2023-08-08T02:15:21;6.40;;;2.40;;
15331;SDS011;7766;51.534;6.722;2023-08-08T02:16:22;2.90;;;2.20;;
15331;SDS011;7766;51.534;6.722;2023-08-08T02:17:24;2.97;;;2.10;;
15331;SDS011;7766;51.534;6.722;2023-08-08T02:18:26;5.40;;;2.43;;
15331;SDS011;7766;51.534;6.722;2023-08-08T02:19:27;5.90;;;2.60;;
15331;SDS011;7766;51.534;6.722;2023-08-08T02:20:29;4.77;;;2.23;;
15331;SDS011;7766;51.534;6.722;2023-08-08T02:21:30;4.80;;;2.30;;
15331;SDS011;7766;51.534;6.722;2023-08-08T02:22:31;4.50;;;2.20;;
15331;SDS011;7766;51.534;6.722;2023-08-08T02:23:33;4.27;;;2.40;;
15331;SDS011;7766;51.534;6.722;2023-08-08T02:24:34;3.77;;;2.20;;
15331;SDS011;7766;51.534;6.722;2023-08-08T02:25:35;5.13;;;2.30;;
15331;SDS011;7766;51.534;6.722;2023-08-08T02:26:36;3.57;;;2.63;;
15331;SDS011;7766;51.534;6.722;2023-08-08T02:27:36;4.37;;;2.40;;
15331;SDS011;7766;51.534;6.722;2023-08-08T02:28:37;5.17;;;2.60;;
15331;SDS011;7766;51.534;6.722;2023-08-08T02:29:38;3.83;;;2.33;;
15331;SDS011;7766;51.534;6.722;2023-08-08T02:30:39;5.13;;;2.37;;
15331;SDS011;7766;51.534;6.722;2023-08-08T02:31:41;4.67;;;2.37;;
15331;SDS011;7766;51.534;6.722;2023-08-08T02:32:42;5.90;;;2.30;;
15331;SDS011;7766;51.534;6.722;2023-08-08T02:33:43;4.37;;;2.47;;
15331;SDS011;7766;51.534;6.722;2023-08-08T02:34:44;5.53;;;2.60;;
15331;SDS011;7766;51.534;6.722;2023-08-08T02:35:45;3.40;;;2.20;;
15331;SDS011;7766;51.534;6.722;2023-08-08T02:36:46;4.80;;;2.20;;
15331;SDS011;7766;51.534;6.722;2023-08-08T02:37:48;3.37;;;2.20;;
15331;SDS011;7766;51.534;6.722;2023-08-08T02:38:48;5.97;;;2.23;;
15331;SDS011;7766;51.534;6.722;2023-08-08T02:39:53;5.33;;;2.57;;
15331;SDS011;7766;51.534;6.722;2023-08-08T02:40:54;5.47;;;2.73;;
15331;SDS011;7766;51.534;6.722;2023-08-08T02:41:55;4.47;;;2.13;;
15331;SDS011;7766;51.534;6.722;2023-08-08T02:42:56;4.43;;;2.17;;
15331;SDS011;7766;51.534;6.722;2023-08-08T02:43:57;3.80;;;2.20;;
15331;SDS011;7766;51.534;6.722;2023-08-08T02:44:58;5.63;;;2.60;;
15331;SDS011;7766;51.534;6.722;2023-08-08T02:45:59;3.73;;;2.50;;
15331;SDS011;7766;51.534;6.722;2023-08-08T02:47:00;3.97;;;2.13;;
15331;SDS011;7766;51.534;6.722;2023-08-08T02:48:01;5.37;;;2.60;;
15331;SDS011;7766;51.534;6.722;2023-08-08T02:49:02;4.97;;;2.30;;
15331;SDS011;7766;51.534;6.722;2023-08-08T02:50:04;3.80;;;2.40;;
15331;SDS011;7766;51.534;6.722;2023-08-08T02:51:05;5.70;;;2.53;;
15331;SDS011;7766;51.534;6.722;2023-08-08T02:52:06;7.30;;;2.50;;
15331;SDS011;7766;51.534;6.722;2023-08-08T02:53:07;3.87;;;2.10;;
15331;SDS011;7766;51.534;6.722;2023-08-08T02:54:08;4.23;;;2.17;;
15331;SDS011;7766;51.534;6.722;2023-08-08T02:55:09;4.40;;;2.43;;
15331;SDS011;7766;51.534;6.722;2023-08-08T02:56:10;4.83;;;2.87;;
15331;SDS011;7766;51.534;6.722;2023-08-08T02:57:11;4.30;;;2.13;;
15331;SDS011;7766;51.534;6.722;2023-08-08T02:58:13;7.17;;;2.73;;
15331;SDS011;7766;51.534;6.722;2023-08-08T02:59:14;3.83;;;2.60;;
15331;SDS011;7766;51.534;6.722;2023-08-08T03:00:15;6.10;;;2.63;;
15331;SDS011;7766;51.534;6.722;2023-08-08T03:01:17;6.50;;;2.27;;
15331;SDS011;7766;51.534;6.722;2023-08-08T03:02:18;3.60;;;2.67;;
15331;SDS011;7766;51.534;6.722;2023-08-08T03:03:19;5.47;;;2.73;;
15331;SDS011;7766;51.534;6.722;2023-08-08T03:04:20;2.90;;;2.33;;
15331;SDS011;7766;51.534;6.722;2023-08-08T03:05:21;4.10;;;2.10;;
15331;SDS011;7766;51.534;6.722;2023-08-08T03:06:22;7.10;;;2.47;;
15331;SDS011;7766;51.534;6.722;2023-08-08T03:07:23;5.07;;;2.63;;
15331;SDS011;7766;51.534;6.722;2023-08-08T03:08:24;5.57;;;2.40;;
15331;SDS011;7766;51.534;6.722;2023-08-08T03:09:25;3.40;;;2.50;;
15331;SDS011;7766;51.534;6.722;2023-08-08T03:10:26;4.43;;;2.47;;
15331;SDS011;7766;51.534;6.722;2023-08-08T03:11:27;5.97;;;2.57;;
15331;SDS011;7766;51.534;6.722;2023-08-08T03:12:28;8.80;;;2.50;;
15331;SDS011;7766;51.534;6.722;2023-08-08T03:13:29;6.93;;;3.00;;
15331;SDS011;7766;51.534;6.722;2023-08-08T03:14:30;8.47;;;2.77;;
15331;SDS011;7766;51.534;6.722;2023-08-08T03:15:31;6.80;;;2.30;;
15331;SDS011;7766;51.534;6.722;2023-08-08T03:16:31;4.40;;;2.40;;
15331;SDS011;7766;51.534;6.722;2023-08-08T03:17:32;5.40;;;2.53;;
15331;SDS011;7766;51.534;6.722;2023-08-08T03:18:33;6.00;;;2.77;;
15331;SDS011;7766;51.534;6.722;2023-08-08T03:19:34;7.37;;;2.57;;
15331;SDS011;7766;51.534;6.722;2023-08-08T03:20:35;7.60;;;3.33;;
15331;SDS011;7766;51.534;6.722;2023-08-08T03:21:36;7.80;;;3.00;;
15331;SDS011;7766;51.534;6.722;2023-08-08T03:22:37;6.17;;;2.97;;
15331;SDS011;7766;51.534;6.722;2023-08-08T03:23:38;5.30;;;3.10;;
15331;SDS011;7766;51.534;6.722;2023-08-08T03:24:39;5.90;;;3.43;;
15331;SDS011;7766;51.534;6.722;2023-08-08T03:25:40;6.17;;;2.90;;
15331;SDS011;7766;51.534;6.722;2023-08-08T03:26:41;4.73;;;2.90;;
15331;SDS011;7766;51.534;6.722;2023-08-08T03:27:42;6.37;;;3.40;;
15331;SDS011;7766;51.534;6.722;2023-08-08T03:28:43;6.87;;;2.90;;
15331;SDS011;7766;51.534;6.722;2023-08-08T03:29:44;4.70;;;2.90;;
15331;SDS011;7766;51.534;6.722;2023-08-08T03:30:45;8.87;;;3.53;;
15331;SDS011;7766;51.534;6.722;2023-08-08T03:31:46;3.67;;;2.80;;
15331;SDS011;7766;51.534;6.722;2023-08-08T03:32:47;5.40;;;3.13;;
15331;SDS011;7766;51.534;6.722;2023-08-08T03:33:48;4.70;;;3.07;;
15331;SDS011;7766;51.534;6.722;2023-08-08T03:34:49;6.33;;;3.07;;
15331;SDS011;7766;51.534;6.722;2023-08-08T03:35:50;7.20;;;3.30;;
15331;SDS011;7766;51.534;6.722;2023-08-08T03:36:51;4.93;;;2.90;;
15331;SDS011;7766;51.534;6.722;2023-08-08T03:37:52;5.37;;;3.33;;
15331;SDS011;7766;51.534;6.722;2023-08-08T03:38:53;9.90;;;3.43;;
15331;SDS011;7766;51.534;6.722;2023-08-08T03:39:54;6.97;;;3.40;;
15331;SDS011;7766;51.534;6.722;2023-08-08T03:40:55;6.17;;;3.07;;
15331;SDS011;7766;51.534;6.722;2023-08-08T03:41:56;6.23;;;3.23;;
15331;SDS011;7766;51.534;6.722;2023-08-08T03:42:57;5.60;;;3.13;;
15331;SDS011;7766;51.534;6.722;2023-08-08T03:43:58;9.53;;;2.93;;
15331;SDS011;7766;51.534;6.722;2023-08-08T03:44:59;5.73;;;3.63;;
15331;SDS011;7766;51.534;6.722;2023-08-08T03:46:01;7.50;;;3.10;;
15331;SDS011;7766;51.534;6.722;2023-08-08T03:47:02;5.93;;;2.90;;
15331;SDS011;7766;51.534;6.722;2023-08-08T03:48:03;8.10;;;3.27;;
15331;SDS011;7766;51.534;6.722;2023-08-08T03:49:04;6.00;;;3.13;;
15331;SDS011;7766;51.534;6.722;2023-08-08T03:50:06;6.50;;;3.10;;
15331;SDS011;7766;51.534;6.722;2023-08-08T03:51:09;5.60;;;2.97;;
15331;SDS011;7766;51.534;6.722;2023-08-08T03:52:10;9.23;;;3.13;;
15331;SDS011;7766;51.534;6.722;2023-08-08T03:53:11;8.83;;;3.60;;
15331;SDS011;7766;51.534;6.722;2023-08-08T03:54:12;5.63;;;2.90;;
15331;SDS011;7766;51.534;6.722;2023-08-08T03:55:13;6.53;;;3.57;;
15331;SDS011;7766;51.534;6.722;2023-08-08T03:56:14;7.67;;;3.47;;
15331;SDS011;7766;51.534;6.722;2023-08-08T03:57:15;6.17;;;3.77;;
15331;SDS011;7766;51.534;6.722;2023-08-08T03:58:16;4.40;;;3.13;;
15331;SDS011;7766;51.534;6.722;2023-08-08T03:59:17;9.20;;;3.60;;
15331;SDS011;7766;51.534;6.722;2023-08-08T04:00:18;6.53;;;3.33;;
15331;SDS011;7766;51.534;6.722;2023-08-08T04:01:19;6.30;;;3.20;;
15331;SDS011;7766;51.534;6.722;2023-08-08T04:02:20;7.47;;;3.07;;
15331;SDS011;7766;51.534;6.722;2023-08-08T04:03:21;6.27;;;3.00;;
15331;SDS011;7766;51.534;6.722;2023-08-08T04:04:22;5.97;;;3.30;;
15331;SDS011;7766;51.534;6.722;2023-08-08T04:05:23;6.97;;;3.30;;
15331;SDS011;7766;51.534;6.722;2023-08-08T04:06:24;4.77;;;3.30;;
15331;SDS011;7766;51.534;6.722;2023-08-08T04:07:24;6.10;;;3.07;;
15331;SDS011;7766;51.534;6.722;2023-08-08T04:08:25;8.77;;;3.30;;
15331;SDS011;7766;51.534;6.722;2023-08-08T04:09:26;6.20;;;3.20;;
15331;SDS011;7766;51.534;6.722;2023-08-08T04:10:27;6.50;;;3.60;;
15331;SDS011;7766;51.534;6.722;2023-08-08T04:11:28;7.13;;;3.53;;
15331;SDS011;7766;51.534;6.722;2023-08-08T04:12:29;8.97;;;4.00;;
15331;SDS011;7766;51.534;6.722;2023-08-08T04:13:32;5.83;;;2.80;;
15331;SDS011;7766;51.534;6.722;2023-08-08T04:14:33;5.23;;;3.10;;
15331;SDS011;7766;51.534;6.722;2023-08-08T04:15:34;7.47;;;3.30;;
15331;SDS011;7766;51.534;6.722;2023-08-08T04:16:35;4.00;;;3.10;;
15331;SDS011;7766;51.534;6.722;2023-08-08T04:17:36;5.23;;;3.73;;
15331;SDS011;7766;51.534;6.722;2023-08-08T04:18:37;5.87;;;3.30;;
15331;SDS011;7766;51.534;6.722;2023-08-08T04:19:38;4.77;;;3.23;;
15331;SDS011;7766;51.534;6.722;2023-08-08T04:20:39;6.30;;;3.13;;
15331;SDS011;7766;51.534;6.722;2023-08-08T04:21:40;3.80;;;2.93;;
15331;SDS011;7766;51.534;6.722;2023-08-08T04:22:41;6.97;;;3.57;;
15331;SDS011;7766;51.534;6.722;2023-08-08T04:23:42;5.90;;;3.63;;
15331;SDS011;7766;51.534;6.722;2023-08-08T04:24:43;5.80;;;3.13;;
15331;SDS011;7766;51.534;6.722;2023-08-08T04:25:44;6.70;;;3.37;;
15331;SDS011;7766;51.534;6.722;2023-08-08T04:26:45;6.80;;;3.73;;
15331;SDS011;7766;51.534;6.722;2023-08-08T04:27:46;6.80;;;3.30;;
15331;SDS011;7766;51.534;6.722;2023-08-08T04:28:47;9.07;;;3.40;;
15331;SDS011;7766;51.534;6.722;2023-08-08T04:29:48;5.43;;;3.20;;
15331;SDS011;7766;51.534;6.722;2023-08-08T04:30:49;8.87;;;3.57;;
15331;SDS011;7766;51.534;6.722;2023-08-08T04:31:50;6.30;;;3.13;;
15331;SDS011;7766;51.534;6.722;2023-08-08T04:32:52;8.70;;;3.40;;
15331;SDS011;7766;51.534;6.722;2023-08-08T04:33:53;6.57;;;2.90;;
15331;SDS011;7766;51.534;6.722;2023-08-08T04:35:00;7.20;;;3.67;;
15331;SDS011;7766;51.534;6.722;2023-08-08T04:36:01;6.83;;;3.70;;
15331;SDS011;7766;51.534;6.722;2023-08-08T04:37:02;7.77;;;3.43;;
15331;SDS011;7766;51.534;6.722;2023-08-08T04:38:03;7.23;;;3.37;;
15331;SDS011;7766;51.534;6.722;2023-08-08T04:39:04;6.70;;;3.40;;
15331;SDS011;7766;51.534;6.722;2023-08-08T04:40:06;6.50;;;4.00;;
15331;SDS011;7766;51.534;6.722;2023-08-08T04:41:08;12.43;;;3.90;;
15331;SDS011;7766;51.534;6.722;2023-08-08T04:42:09;7.33;;;3.50;;
15331;SDS011;7766;51.534;6.722;2023-08-08T04:43:10;8.30;;;3.40;;
15331;SDS011;7766;51.534;6.722;2023-08-08T04:44:11;7.67;;;3.70;;
15331;SDS011;7766;51.534;6.722;2023-08-08T04:45:12;4.53;;;3.27;;
15331;SDS011;7766;51.534;6.722;2023-08-08T04:46:14;9.50;;;3.83;;
15331;SDS011;7766;51.534;6.722;2023-08-08T04:47:15;8.37;;;3.50;;
15331;SDS011;7766;51.534;6.722;2023-08-08T04:48:16;8.47;;;3.63;;
15331;SDS011;7766;51.534;6.722;2023-08-08T04:49:17;8.10;;;4.20;;
15331;SDS011;7766;51.534;6.722;2023-08-08T04:50:18;6.13;;;4.20;;
15331;SDS011;7766;51.534;6.722;2023-08-08T04:51:19;9.83;;;3.87;;
15331;SDS011;7766;51.534;6.722;2023-08-08T04:52:20;9.53;;;4.27;;
15331;SDS011;7766;51.534;6.722;2023-08-08T04:53:21;10.87;;;4.10;;
15331;SDS011;7766;51.534;6.722;2023-08-08T04:54:22;7.20;;;3.57;;
15331;SDS011;7766;51.534;6.722;2023-08-08T04:55:23;7.97;;;3.77;;
15331;SDS011;7766;51.534;6.722;2023-08-08T04:56:24;11.00;;;3.77;;
15331;SDS011;7766;51.534;6.722;2023-08-08T04:57:25;8.33;;;3.83;;
15331;SDS011;7766;51.534;6.722;2023-08-08T04:58:26;6.77;;;3.90;;
15331;SDS011;7766;51.534;6.722;2023-08-08T04:59:27;10.93;;;4.17;;
15331;SDS011;7766;51.534;6.722;2023-08-08T05:00:28;8.47;;;4.03;;
15331;SDS011;7766;51.534;6.722;2023-08-08T05:01:29;8.47;;;3.93;;
15331;SDS011;7766;51.534;6.722;2023-08-08T05:02:30;7.77;;;3.73;;
15331;SDS011;7766;51.534;6.722;2023-08-08T05:03:31;11.80;;;4.07;;
15331;SDS011;7766;51.534;6.722;2023-08-08T05:04:32;12.03;;;4.70;;
15331;SDS011;7766;51.534;6.722;2023-08-08T05:05:33;8.60;;;4.97;;
15331;SDS011;7766;51.534;6.722;2023-08-08T05:06:34;8.93;;;3.87;;
15331;SDS011;7766;51.534;6.722;2023-08-08T05:07:35;8.37;;;3.80;;
15331;SDS011;7766;51.534;6.722;2023-08-08T05:08:37;12.40;;;4.13;;
15331;SDS011;7766;51.534;6.722;2023-08-08T05:09:38;6.77;;;4.27;;
15331;SDS011;7766;51.534;6.722;2023-08-08T05:10:40;9.60;;;4.30;;
15331;SDS011;7766;51.534;6.722;2023-08-08T05:11:41;7.83;;;4.30;;
15331;SDS011;7766;51.534;6.722;2023-08-08T05:12:42;5.80;;;3.90;;
15331;SDS011;7766;51.534;6.722;2023-08-08T05:13:43;12.03;;;4.43;;
15331;SDS011;7766;51.534;6.722;2023-08-08T05:14:44;5.03;;;3.73;;
15331;SDS011;7766;51.534;6.722;2023-08-08T05:15:45;6.33;;;3.80;;
15331;SDS011;7766;51.534;6.722;2023-08-08T05:16:46;9.00;;;4.50;;
15331;SDS011;7766;51.534;6.722;2023-08-08T05:17:47;8.13;;;4.23;;
15331;SDS011;7766;51.534;6.722;2023-08-08T05:18:48;9.70;;;4.57;;
15331;SDS011;7766;51.534;6.722;2023-08-08T05:19:48;11.27;;;4.17;;
15331;SDS011;7766;51.534;6.722;2023-08-08T05:20:49;7.23;;;4.07;;
15331;SDS011;7766;51.534;6.722;2023-08-08T05:21:51;7.93;;;4.40;;
15331;SDS011;7766;51.534;6.722;2023-08-08T05:22:53;9.40;;;5.03;;
15331;SDS011;7766;51.534;6.722;2023-08-08T05:23:54;9.73;;;5.70;;
15331;SDS011;7766;51.534;6.722;2023-08-08T05:24:55;7.97;;;5.10;;
15331;SDS011;7766;51.534;6.722;2023-08-08T05:25:56;9.47;;;5.10;;
15331;SDS011;7766;51.534;6.722;2023-08-08T05:26:58;12.17;;;5.13;;
15331;SDS011;7766;51.534;6.722;2023-08-08T05:27:59;8.57;;;4.40;;
15331;SDS011;7766;51.534;6.722;2023-08-08T05:29:00;11.13;;;4.47;;
15331;SDS011;7766;51.534;6.722;2023-08-08T05:30:01;11.10;;;4.67;;
15331;SDS011;7766;51.534;6.722;2023-08-08T05:31:02;10.57;;;5.03;;
15331;SDS011;7766;51.534;6.722;2023-08-08T05:32:03;9.73;;;5.47;;
15331;SDS011;7766;51.534;6.722;2023-08-08T05:33:06;10.70;;;5.67;;
15331;SDS011;7766;51.534;6.722;2023-08-08T05:34:07;10.73;;;5.20;;
15331;SDS011;7766;51.534;6.722;2023-08-08T05:35:08;10.80;;;5.67;;
15331;SDS011;7766;51.534;6.722;2023-08-08T05:36:09;10.60;;;5.77;;
15331;SDS011;7766;51.534;6.722;2023-08-08T05:37:10;11.70;;;5.40;;
15331;SDS011;7766;51.534;6.722;2023-08-08T05:38:11;8.37;;;5.43;;
15331;SDS011;7766;51.534;6.722;2023-08-08T05:39:12;10.13;;;4.87;;
15331;SDS011;7766;51.534;6.722;2023-08-08T05:40:13;13.10;;;5.87;;
15331;SDS011;7766;51.534;6.722;2023-08-08T05:41:14;9.73;;;5.33;;
15331;SDS011;7766;51.534;6.722;2023-08-08T05:42:15;9.20;;;5.57;;
15331;SDS011;7766;51.534;6.722;2023-08-08T05:43:16;9.57;;;6.00;;
15331;SDS011;7766;51.534;6.722;2023-08-08T05:44:18;12.80;;;5.93;;
15331;SDS011;7766;51.534;6.722;2023-08-08T05:45:19;10.50;;;6.20;;
15331;SDS011;7766;51.534;6.722;2023-08-08T05:46:20;14.33;;;6.60;;
15331;SDS011;7766;51.534;6.722;2023-08-08T05:47:21;12.77;;;6.63;;
15331;SDS011;7766;51.534;6.722;2023-08-08T05:48:22;11.73;;;6.60;;
15331;SDS011;7766;51.534;6.722;2023-08-08T05:49:23;11.10;;;6.33;;
15331;SDS011;7766;51.534;6.722;2023-08-08T05:50:24;11.67;;;7.30;;
15331;SDS011;7766;51.534;6.722;2023-08-08T05:51:28;12.77;;;6.93;;
15331;SDS011;7766;51.534;6.722;2023-08-08T05:52:30;13.90;;;7.33;;
15331;SDS011;7766;51.534;6.722;2023-08-08T05:53:32;12.40;;;7.00;;
15331;SDS011;7766;51.534;6.722;2023-08-08T05:54:33;13.13;;;8.10;;
15331;SDS011;7766;51.534;6.722;2023-08-08T05:55:34;12.40;;;8.17;;
15331;SDS011;7766;51.534;6.722;2023-08-08T05:56:36;14.97;;;8.33;;
15331;SDS011;7766;51.534;6.722;2023-08-08T05:57:37;13.90;;;8.70;;
15331;SDS011;7766;51.534;6.722;2023-08-08T05:58:38;15.10;;;8.43;;
15331;SDS011;7766;51.534;6.722;2023-08-08T05:59:39;14.33;;;7.73;;
15331;SDS011;7766;51.534;6.722;2023-08-08T06:00:40;12.47;;;8.40;;
15331;SDS011;7766;51.534;6.722;2023-08-08T06:01:42;13.13;;;8.30;;
15331;SDS011;7766;51.534;6.722;2023-08-08T06:02:44;12.57;;;8.37;;
15331;SDS011;7766;51.534;6.722;2023-08-08T06:03:45;17.13;;;8.60;;
15331;SDS011;7766;51.534;6.722;2023-08-08T06:04:47;15.33;;;8.23;;
15331;SDS011;7766;51.534;6.722;2023-08-08T06:05:48;13.73;;;8.77;;
15331;SDS011;7766;51.534;6.722;2023-08-08T06:06:49;16.37;;;8.87;;
15331;SDS011;7766;51.534;6.722;2023-08-08T06:07:50;16.63;;;8.83;;
15331;SDS011;7766;51.534;6.722;2023-08-08T06:08:51;13.77;;;8.53;;
15331;SDS011;7766;51.534;6.722;2023-08-08T06:09:52;18.67;;;10.10;;
15331;SDS011;7766;51.534;6.722;2023-08-08T06:10:53;14.37;;;8.63;;
15331;SDS011;7766;51.534;6.722;2023-08-08T06:11:54;16.87;;;9.53;;
15331;SDS011;7766;51.534;6.722;2023-08-08T06:12:55;16.07;;;9.03;;
15331;SDS011;7766;51.534;6.722;2023-08-08T06:13:56;19.70;;;9.67;;
15331;SDS011;7766;51.534;6.722;2023-08-08T06:14:57;14.53;;;9.50;;
15331;SDS011;7766;51.534;6.722;2023-08-08T06:15:58;16.37;;;9.00;;
15331;SDS011;7766;51.534;6.722;2023-08-08T06:17:01;15.63;;;10.20;;
15331;SDS011;7766;51.534;6.722;2023-08-08T06:18:02;14.63;;;9.90;;
15331;SDS011;7766;51.534;6.722;2023-08-08T06:19:03;18.10;;;10.00;;